createdAt,value
2019-03-04T00:00:56.781Z,11.03
2019-03-04T00:03:26.410Z,6.00
2019-03-04T00:05:56.116Z,7.17
2019-03-04T00:08:25.397Z,9.70
2019-03-04T00:10:54.526Z,7.67
2019-03-04T00:13:23.782Z,6.20
2019-03-04T00:15:53.028Z,6.90
2019-03-04T00:18:22.108Z,5.90
2019-03-04T00:20:51.440Z,6.87
2019-03-04T00:23:20.630Z,4.67
2019-03-04T00:25:51.806Z,6.33
2019-03-04T00:28:20.643Z,9.17
2019-03-04T00:30:50.017Z,5.10
2019-03-04T00:33:19.315Z,6.53
2019-03-04T00:35:49.031Z,5.37
2019-03-04T00:38:18.121Z,6.10
2019-03-04T00:40:47.391Z,4.23
2019-03-04T00:43:16.630Z,6.27
2019-03-04T00:45:46.130Z,8.77
2019-03-04T00:48:15.744Z,4.70
2019-03-04T00:50:45.155Z,7.23
2019-03-04T00:53:14.634Z,7.23
2019-03-04T00:55:43.831Z,7.37
2019-03-04T00:58:13.132Z,6.40
2019-03-04T01:00:42.900Z,6.23
2019-03-04T01:03:12.399Z,4.63
2019-03-04T01:05:41.545Z,6.30
2019-03-04T01:08:10.735Z,5.80
2019-03-04T01:10:41.578Z,6.63
2019-03-04T01:13:10.764Z,5.07
2019-03-04T01:15:39.837Z,5.87
2019-03-04T01:18:09.470Z,4.70
2019-03-04T01:20:39.259Z,7.17
2019-03-04T01:23:11.462Z,6.20
2019-03-04T01:25:42.269Z,6.83
2019-03-04T01:28:11.618Z,4.17
2019-03-04T01:30:41.016Z,4.57
2019-03-04T01:33:10.384Z,7.70
2019-03-04T01:35:39.599Z,4.97
2019-03-04T01:38:09.004Z,5.10
2019-03-04T01:40:38.775Z,4.77
2019-03-04T01:43:08.503Z,6.67
2019-03-04T01:45:37.700Z,4.10
2019-03-04T01:48:07.170Z,6.20
2019-03-04T01:50:36.828Z,4.67
2019-03-04T01:53:06.041Z,6.17
2019-03-04T01:55:35.216Z,5.10
2019-03-04T01:58:39.613Z,4.50
2019-03-04T02:01:36.094Z,7.17
2019-03-04T02:04:05.606Z,8.50
2019-03-04T02:06:34.958Z,3.60
2019-03-04T02:09:04.683Z,3.70
2019-03-04T02:11:33.969Z,4.07
2019-03-04T02:14:03.300Z,3.53
2019-03-04T02:16:32.564Z,4.60
2019-03-04T02:19:01.963Z,3.97
2019-03-04T02:21:31.714Z,5.50
2019-03-04T02:24:17.875Z,5.30
2019-03-04T02:26:47.112Z,4.50
2019-03-04T02:29:16.760Z,6.87
2019-03-04T02:31:46.530Z,6.33
2019-03-04T02:34:15.787Z,5.00
2019-03-04T02:36:47.848Z,6.53
2019-03-04T02:39:17.257Z,4.43
2019-03-04T02:41:47.444Z,6.50
2019-03-04T02:44:16.857Z,4.10
2019-03-04T02:46:46.488Z,8.73
2019-03-04T02:49:16.384Z,3.30
2019-03-04T02:51:45.784Z,4.87
2019-03-04T02:54:15.096Z,4.40
2019-03-04T02:56:44.321Z,4.77
2019-03-04T02:59:13.728Z,3.27
2019-03-04T03:01:42.972Z,3.40
2019-03-04T03:04:11.986Z,3.87
2019-03-04T03:06:41.204Z,4.70
2019-03-04T03:09:12.737Z,4.97
2019-03-04T03:11:42.218Z,4.30
2019-03-04T03:14:11.735Z,4.00
2019-03-04T03:16:41.588Z,4.47
2019-03-04T03:19:11.101Z,3.87
2019-03-04T03:21:40.371Z,3.83
2019-03-04T03:24:10.369Z,5.60
2019-03-04T03:26:40.145Z,5.97
2019-03-04T03:29:09.934Z,3.27
2019-03-04T03:31:39.074Z,3.37
2019-03-04T03:34:08.868Z,3.53
2019-03-04T03:36:38.391Z,3.27
2019-03-04T03:39:07.811Z,4.70
2019-03-04T03:41:37.314Z,3.67
2019-03-04T03:44:06.819Z,2.93
2019-03-04T03:46:36.109Z,5.13
2019-03-04T03:49:05.550Z,4.30
2019-03-04T03:51:34.834Z,3.90
2019-03-04T03:54:04.635Z,3.90
2019-03-04T03:56:33.915Z,2.57
2019-03-04T03:59:06.097Z,2.80
2019-03-04T04:01:35.697Z,4.13
2019-03-04T04:04:05.077Z,4.30
2019-03-04T04:06:34.424Z,4.97
2019-03-04T04:09:05.052Z,3.33
2019-03-04T04:11:34.225Z,2.97
2019-03-04T04:14:03.518Z,1.90
2019-03-04T04:16:32.815Z,2.03
2019-03-04T04:19:01.830Z,4.23
2019-03-04T04:21:31.095Z,3.07
2019-03-04T04:24:00.383Z,2.53
2019-03-04T04:26:29.700Z,2.57
2019-03-04T04:29:11.285Z,3.80
2019-03-04T04:31:40.596Z,2.90
2019-03-04T04:34:10.306Z,3.10
2019-03-04T04:36:40.118Z,2.87
2019-03-04T04:39:09.619Z,2.43
2019-03-04T04:41:38.827Z,4.40
2019-03-04T04:44:08.185Z,2.70
2019-03-04T04:46:52.881Z,2.07
2019-03-04T04:49:22.167Z,3.60
2019-03-04T04:51:51.775Z,3.50
2019-03-04T04:54:20.932Z,2.83
2019-03-04T04:56:51.324Z,3.57
2019-03-04T04:59:20.503Z,4.33
2019-03-04T05:01:49.706Z,3.10
2019-03-04T05:04:19.148Z,2.03
2019-03-04T05:06:48.411Z,2.83
2019-03-04T05:09:17.813Z,1.90
2019-03-04T05:11:47.193Z,2.17
2019-03-04T05:14:16.515Z,2.67
2019-03-04T05:16:45.850Z,2.23
2019-03-04T05:19:15.316Z,2.30
2019-03-04T05:21:44.597Z,2.27
2019-03-04T05:24:13.804Z,2.60
2019-03-04T05:26:43.212Z,2.30
2019-03-04T05:29:12.486Z,2.00
2019-03-04T05:31:41.713Z,2.87
2019-03-04T05:34:10.977Z,1.57
2019-03-04T05:36:40.708Z,1.50
2019-03-04T05:39:09.782Z,1.30
2019-03-04T05:41:40.707Z,1.47
2019-03-04T05:44:10.009Z,2.73
2019-03-04T05:46:39.734Z,2.60
2019-03-04T05:49:09.139Z,3.93
2019-03-04T05:51:38.839Z,2.13
2019-03-04T05:54:08.156Z,2.70
2019-03-04T05:56:37.250Z,3.83
2019-03-04T05:59:06.334Z,3.43
2019-03-04T06:01:36.711Z,1.63
2019-03-04T06:04:07.188Z,4.27
2019-03-04T06:06:45.922Z,3.30
2019-03-04T06:09:15.411Z,2.10
2019-03-04T06:11:44.528Z,2.07
2019-03-04T06:14:13.831Z,2.53
2019-03-04T06:16:47.631Z,1.40
2019-03-04T06:19:17.014Z,3.43
2019-03-04T06:21:46.394Z,2.00
2019-03-04T06:24:16.123Z,1.93
2019-03-04T06:26:45.233Z,2.13
2019-03-04T06:29:14.501Z,1.90
2019-03-04T06:31:44.518Z,1.90
2019-03-04T06:34:13.831Z,1.90
2019-03-04T06:36:43.349Z,2.97
2019-03-04T06:39:12.626Z,1.50
2019-03-04T06:41:41.842Z,2.60
2019-03-04T06:44:11.056Z,2.13
2019-03-04T06:46:40.220Z,2.27
2019-03-04T06:49:09.407Z,1.77
2019-03-04T06:51:40.093Z,2.10
2019-03-04T06:54:31.253Z,2.40
2019-03-04T06:57:02.392Z,1.70
2019-03-04T06:59:35.057Z,1.80
2019-03-04T07:02:06.547Z,1.80
2019-03-04T07:04:38.479Z,1.87
2019-03-04T07:07:07.685Z,3.53
2019-03-04T07:09:36.982Z,2.73
2019-03-04T07:12:06.405Z,2.50
2019-03-04T07:14:35.577Z,2.87
2019-03-04T07:17:05.087Z,3.77
2019-03-04T07:19:35.543Z,2.50
2019-03-04T07:22:04.812Z,2.77
2019-03-04T07:24:34.212Z,1.40
2019-03-04T07:27:03.490Z,1.77
2019-03-04T07:29:32.694Z,1.40
2019-03-04T07:32:02.098Z,2.77
2019-03-04T07:34:31.116Z,2.37
2019-03-04T07:37:00.394Z,2.43
2019-03-04T07:39:29.732Z,2.90
2019-03-04T07:41:59.768Z,3.17
2019-03-04T07:44:28.907Z,2.83
2019-03-04T07:46:58.103Z,1.63
2019-03-04T07:49:27.431Z,2.50
2019-03-04T07:51:56.714Z,1.90
2019-03-04T07:54:26.199Z,1.90
2019-03-04T07:56:55.571Z,2.77
2019-03-04T07:59:24.486Z,2.07
2019-03-04T08:01:53.771Z,2.20
2019-03-04T08:04:23.006Z,2.67
2019-03-04T08:06:53.710Z,2.20
2019-03-04T08:09:26.850Z,2.07
2019-03-04T08:12:18.334Z,1.47
2019-03-04T08:14:47.742Z,1.13
2019-03-04T08:17:17.365Z,2.50
2019-03-04T08:19:47.260Z,1.13
2019-03-04T08:22:16.745Z,0.87
2019-03-04T08:24:46.304Z,0.30
2019-03-04T08:27:16.122Z,4.40
2019-03-04T08:29:45.470Z,2.33
2019-03-04T08:32:14.774Z,1.80
2019-03-04T08:34:44.169Z,2.40
2019-03-04T08:37:14.086Z,2.17
2019-03-04T08:39:43.230Z,1.67
2019-03-04T08:42:12.580Z,4.00
2019-03-04T08:44:42.281Z,3.07
2019-03-04T08:47:15.083Z,1.90
2019-03-04T08:49:44.256Z,1.63
2019-03-04T08:52:13.368Z,1.63
2019-03-04T08:54:42.866Z,2.07
2019-03-04T08:57:12.176Z,1.30
2019-03-04T08:59:41.575Z,3.00
2019-03-04T09:02:11.153Z,1.53
2019-03-04T09:04:43.745Z,3.50
2019-03-04T09:07:13.177Z,3.30
2019-03-04T09:09:42.838Z,3.03
2019-03-04T09:12:12.538Z,0.70
2019-03-04T09:14:41.904Z,2.10
2019-03-04T09:17:11.471Z,1.37
2019-03-04T09:19:41.074Z,0.93
2019-03-04T09:22:10.439Z,2.10
2019-03-04T09:24:39.834Z,1.33
2019-03-04T09:27:09.235Z,1.50
2019-03-04T09:29:38.273Z,1.43
2019-03-04T09:32:07.352Z,1.07
2019-03-04T09:34:37.011Z,1.00
2019-03-04T09:37:06.340Z,4.77
2019-03-04T09:39:35.779Z,1.83
2019-03-04T09:42:20.953Z,2.87
2019-03-04T09:44:50.774Z,1.60
2019-03-04T09:47:20.068Z,5.47
2019-03-04T09:49:49.458Z,4.33
2019-03-04T09:52:18.776Z,2.97
2019-03-04T09:54:48.463Z,2.30
2019-03-04T09:57:17.858Z,3.00
2019-03-04T09:59:47.094Z,2.23
2019-03-04T10:02:18.455Z,1.70
2019-03-04T10:05:22.190Z,1.10
2019-03-04T10:08:11.797Z,2.07
2019-03-04T10:11:06.078Z,2.23
2019-03-04T10:13:48.020Z,2.30
2019-03-04T10:16:19.990Z,2.23
2019-03-04T10:19:17.080Z,3.30
2019-03-04T10:22:05.747Z,2.70
2019-03-04T10:24:43.985Z,2.43
2019-03-04T10:27:32.298Z,4.53
2019-03-04T10:30:20.531Z,3.27
2019-03-04T10:33:05.709Z,6.67
2019-03-04T10:36:01.885Z,4.10
2019-03-04T10:38:37.622Z,3.27
2019-03-04T10:41:09.785Z,2.93
2019-03-04T10:43:58.418Z,3.40
2019-03-04T10:46:40.209Z,3.30
2019-03-04T10:49:09.740Z,2.60
2019-03-04T10:51:39.197Z,2.30
2019-03-04T10:54:08.821Z,2.83
2019-03-04T10:56:40.032Z,2.00
2019-03-04T10:59:09.490Z,2.20
2019-03-04T11:01:39.057Z,2.70
2019-03-04T11:04:08.662Z,1.70
2019-03-04T11:06:37.898Z,3.00
2019-03-04T11:09:08.414Z,1.83
2019-03-04T11:11:38.349Z,2.87
2019-03-04T11:14:07.489Z,2.80
2019-03-04T11:16:38.598Z,3.63
2019-03-04T11:19:08.265Z,9.07
2019-03-04T11:21:37.242Z,1.03
2019-03-04T11:24:07.608Z,3.10
2019-03-04T11:26:36.782Z,7.27
2019-03-04T11:29:08.626Z,1.40
2019-03-04T11:31:38.125Z,2.40
2019-03-04T11:34:07.797Z,1.73
2019-03-04T11:36:37.120Z,2.27
2019-03-04T11:39:20.584Z,1.70
2019-03-04T11:41:49.654Z,1.37
2019-03-04T11:44:18.957Z,2.07
2019-03-04T11:46:48.154Z,0.60
2019-03-04T11:49:18.066Z,2.93
2019-03-04T11:51:47.496Z,2.73
2019-03-04T11:54:16.665Z,2.83
2019-03-04T11:56:45.971Z,3.00
2019-03-04T11:59:15.477Z,2.00
2019-03-04T12:01:47.934Z,0.90
2019-03-04T12:04:17.140Z,3.07
2019-03-04T12:06:46.355Z,2.27
2019-03-04T12:09:17.099Z,1.67
2019-03-04T12:11:46.380Z,2.10
2019-03-04T12:14:18.548Z,2.37
2019-03-04T12:16:47.824Z,2.90
2019-03-04T12:19:21.029Z,3.73
2019-03-04T12:21:50.325Z,2.37
2019-03-04T12:24:19.510Z,2.17
2019-03-04T12:26:49.514Z,2.17
2019-03-04T12:29:18.748Z,3.27
2019-03-04T12:32:01.473Z,2.67
2019-03-04T12:34:30.724Z,1.03
2019-03-04T12:37:00.191Z,2.90
2019-03-04T12:39:29.278Z,2.40
2019-03-04T12:41:58.702Z,3.77
2019-03-04T12:44:27.934Z,3.03
2019-03-04T12:46:57.481Z,2.47
2019-03-04T12:49:26.543Z,3.40
2019-03-04T12:51:55.785Z,3.23
2019-03-04T12:54:24.964Z,2.63
2019-03-04T12:56:54.337Z,5.10
2019-03-04T12:59:23.832Z,2.70
2019-03-04T13:01:52.952Z,2.93
2019-03-04T13:04:22.518Z,5.27
2019-03-04T13:06:51.743Z,5.13
2019-03-04T13:09:21.137Z,3.27
2019-03-04T13:11:50.335Z,2.67
2019-03-04T13:14:19.315Z,4.07
2019-03-04T13:16:51.998Z,3.43
2019-03-04T13:19:21.431Z,1.57
2019-03-04T13:21:54.128Z,1.00
2019-03-04T13:24:26.451Z,2.77
2019-03-04T13:26:55.855Z,2.93
2019-03-04T13:29:25.253Z,2.33
2019-03-04T13:31:54.626Z,1.00
2019-03-04T13:34:23.847Z,1.10
2019-03-04T13:36:53.153Z,2.57
2019-03-04T13:39:22.461Z,2.27
2019-03-04T13:41:51.857Z,1.40
2019-03-04T13:44:21.062Z,1.43
2019-03-04T13:46:50.248Z,1.83
2019-03-04T13:49:20.489Z,1.30
2019-03-04T13:51:50.320Z,1.87
2019-03-04T13:54:20.404Z,3.17
2019-03-04T13:56:49.484Z,1.83
2019-03-04T13:59:19.288Z,2.77
2019-03-04T14:01:48.617Z,1.90
2019-03-04T14:04:18.262Z,2.03
2019-03-04T14:06:47.834Z,1.73
2019-03-04T14:09:19.657Z,1.80
2019-03-04T14:11:49.204Z,2.60
2019-03-04T14:14:18.606Z,2.47
2019-03-04T14:16:47.966Z,5.93
2019-03-04T14:19:17.271Z,2.00
2019-03-04T14:21:47.186Z,1.50
2019-03-04T14:24:16.501Z,2.40
2019-03-04T14:26:47.866Z,2.10
2019-03-04T14:29:17.549Z,2.73
2019-03-04T14:31:46.842Z,3.77
2019-03-04T14:34:16.452Z,2.83
2019-03-04T14:36:45.854Z,1.40
2019-03-04T14:39:15.700Z,2.77
2019-03-04T14:41:45.546Z,4.13
2019-03-04T14:44:15.332Z,6.63
2019-03-04T14:46:45.364Z,1.63
2019-03-04T14:49:14.899Z,1.43
2019-03-04T14:51:45.317Z,1.37
2019-03-04T14:54:15.354Z,1.40
2019-03-04T14:56:47.360Z,2.73
2019-03-04T14:59:15.992Z,1.60
2019-03-04T15:01:45.194Z,2.27
2019-03-04T15:04:14.719Z,2.23
2019-03-04T15:06:44.286Z,4.53
2019-03-04T15:09:14.887Z,2.37
2019-03-04T15:11:44.389Z,4.17
2019-03-04T15:14:14.135Z,2.93
2019-03-04T15:16:43.846Z,2.33
2019-03-04T15:19:13.438Z,2.33
2019-03-04T15:21:42.667Z,2.03
2019-03-04T15:24:11.845Z,1.60
2019-03-04T15:26:44.189Z,2.20
2019-03-04T15:29:12.112Z,2.70
2019-03-04T15:31:41.412Z,2.97
2019-03-04T15:34:10.798Z,2.67
2019-03-04T15:36:40.598Z,3.50
2019-03-04T15:39:22.862Z,5.70
2019-03-04T15:41:47.809Z,2.97
2019-03-04T15:44:17.232Z,2.43
2019-03-04T15:46:46.620Z,3.00
2019-03-04T15:49:15.836Z,3.60
2019-03-04T15:51:45.196Z,3.13
2019-03-04T15:54:14.226Z,3.20
2019-03-04T15:56:45.822Z,4.90
2019-03-04T15:59:15.430Z,4.03
2019-03-04T16:01:44.958Z,5.77
2019-03-04T16:04:14.754Z,5.57
2019-03-04T16:06:44.051Z,8.03
2019-03-04T16:09:15.000Z,5.07
2019-03-04T16:11:45.155Z,4.43
2019-03-04T16:14:14.731Z,3.83
2019-03-04T16:16:44.393Z,6.07
2019-03-04T16:19:13.845Z,8.27
2019-03-04T16:21:43.342Z,5.47
2019-03-04T16:24:12.853Z,4.50
2019-03-04T16:26:42.148Z,5.07
2019-03-04T16:29:11.554Z,4.27
2019-03-04T16:31:41.394Z,5.87
2019-03-04T16:34:11.375Z,5.97
2019-03-04T16:36:40.778Z,6.93
2019-03-04T16:39:10.309Z,9.23
2019-03-04T16:41:39.455Z,4.53
2019-03-04T16:44:08.838Z,6.37
2019-03-04T16:46:38.675Z,6.57
2019-03-04T16:49:08.100Z,9.70
2019-03-04T16:51:37.286Z,5.97
2019-03-04T16:54:06.404Z,8.20
2019-03-04T16:56:38.845Z,9.17
2019-03-04T16:59:08.459Z,6.17
2019-03-04T17:01:37.917Z,8.50
2019-03-04T17:04:07.011Z,6.73
2019-03-04T17:06:36.638Z,6.17
2019-03-04T17:09:10.374Z,5.53
2019-03-04T17:11:39.890Z,5.50
2019-03-04T17:14:09.681Z,5.77
2019-03-04T17:16:39.528Z,7.10
2019-03-04T17:19:09.530Z,6.73
2019-03-04T17:21:38.900Z,6.87
2019-03-04T17:24:08.576Z,5.33
2019-03-04T17:26:37.814Z,6.07
2019-03-04T17:29:08.437Z,6.03
2019-03-04T17:31:38.290Z,4.80
2019-03-04T17:34:10.932Z,6.17
2019-03-04T17:36:40.143Z,7.27
2019-03-04T17:39:09.470Z,4.63
2019-03-04T17:41:39.024Z,3.70
2019-03-04T17:44:11.285Z,6.17
2019-03-04T17:46:40.544Z,6.27
2019-03-04T17:49:09.895Z,6.70
2019-03-04T17:51:39.078Z,4.43
2019-03-04T17:54:08.188Z,3.03
2019-03-04T17:56:37.889Z,5.47
2019-03-04T17:59:07.539Z,4.83
2019-03-04T18:01:36.712Z,4.77
2019-03-04T18:04:05.905Z,6.83
2019-03-04T18:06:35.660Z,3.93
2019-03-04T18:09:06.808Z,3.43
2019-03-04T18:11:36.171Z,7.27
2019-03-04T18:14:06.601Z,4.97
2019-03-04T18:16:36.176Z,7.23
2019-03-04T18:19:05.585Z,8.17
2019-03-04T18:21:34.900Z,5.67
2019-03-04T18:24:04.314Z,5.93
2019-03-04T18:26:39.109Z,4.27
2019-03-04T18:29:46.199Z,4.83
2019-03-04T18:32:46.335Z,2.90
2019-03-04T18:35:32.622Z,5.43
2019-03-04T18:38:14.413Z,3.13
2019-03-04T18:40:50.474Z,7.10
2019-03-04T18:43:37.593Z,5.07
2019-03-04T18:46:20.078Z,6.97
2019-03-04T18:48:56.085Z,3.43
2019-03-04T18:51:25.863Z,6.57
2019-03-04T18:53:57.546Z,5.57
2019-03-04T18:56:26.846Z,4.90
2019-03-04T18:58:56.566Z,5.97
2019-03-04T19:01:26.237Z,5.37
2019-03-04T19:03:55.567Z,7.93
2019-03-04T19:06:24.846Z,3.13
2019-03-04T19:08:54.476Z,7.57
2019-03-04T19:11:24.224Z,8.43
2019-03-04T19:13:53.660Z,5.20
2019-03-04T19:16:23.197Z,4.93
2019-03-04T19:18:52.581Z,4.27
2019-03-04T19:21:22.276Z,10.53
2019-03-04T19:23:52.007Z,8.53
2019-03-04T19:26:21.195Z,4.03
2019-03-04T19:28:53.025Z,6.07
2019-03-04T19:31:23.466Z,6.97
2019-03-04T19:33:54.390Z,9.07
2019-03-04T19:36:23.772Z,9.20
2019-03-04T19:38:53.593Z,11.50
2019-03-04T19:41:34.481Z,7.13
2019-03-04T19:44:03.558Z,5.07
2019-03-04T19:46:35.930Z,7.50
2019-03-04T19:49:05.343Z,9.17
2019-03-04T19:51:34.712Z,8.93
2019-03-04T19:54:04.223Z,4.30
2019-03-04T19:56:33.561Z,5.90
2019-03-04T19:59:03.084Z,6.70
2019-03-04T20:01:32.445Z,7.73
2019-03-04T20:04:01.767Z,5.37
2019-03-04T20:06:31.238Z,8.53
2019-03-04T20:09:00.710Z,6.10
2019-03-04T20:11:30.031Z,6.67
2019-03-04T20:13:59.962Z,5.40
2019-03-04T20:16:29.670Z,5.73
2019-03-04T20:18:58.932Z,6.10
2019-03-04T20:21:28.491Z,5.47
2019-03-04T20:23:57.655Z,6.00
2019-03-04T20:26:27.769Z,4.10
2019-03-04T20:28:57.220Z,4.20
2019-03-04T20:31:27.203Z,4.03
2019-03-04T20:33:56.632Z,4.87
2019-03-04T20:36:26.052Z,2.93
2019-03-04T20:38:55.552Z,3.03
2019-03-04T20:41:24.995Z,5.47
2019-03-04T20:43:54.105Z,4.10
2019-03-04T20:46:23.806Z,3.53
2019-03-04T20:48:53.218Z,4.60
2019-03-04T20:51:22.424Z,5.67
2019-03-04T20:53:51.817Z,3.23
2019-03-04T20:56:21.100Z,6.60
2019-03-04T20:58:50.347Z,4.37
2019-03-04T21:01:20.015Z,5.83
2019-03-04T21:03:49.199Z,4.90
2019-03-04T21:06:18.506Z,6.07
2019-03-04T21:08:47.955Z,6.40
2019-03-04T21:11:17.217Z,4.10
2019-03-04T21:13:46.627Z,3.60
2019-03-04T21:16:16.028Z,2.83
2019-03-04T21:18:45.429Z,4.80
2019-03-04T21:21:14.929Z,5.70
2019-03-04T21:23:44.271Z,7.77
2019-03-04T21:26:15.575Z,3.23
2019-03-04T21:29:16.029Z,3.63
2019-03-04T21:32:04.245Z,4.27
2019-03-04T21:34:55.502Z,4.70
2019-03-04T21:37:29.603Z,4.13
2019-03-04T21:40:00.054Z,2.97
2019-03-04T21:42:38.362Z,4.23
2019-03-04T21:45:41.396Z,5.30
2019-03-04T21:48:31.608Z,3.67
2019-03-04T21:51:13.476Z,4.77
2019-03-04T21:53:44.077Z,7.93
2019-03-04T21:56:26.538Z,5.67
2019-03-04T21:58:56.211Z,4.87
2019-03-04T22:01:30.679Z,5.03
2019-03-04T22:04:00.120Z,4.67
2019-03-04T22:06:29.445Z,4.10
2019-03-04T22:08:58.689Z,4.70
2019-03-04T22:11:27.977Z,3.87
2019-03-04T22:13:57.138Z,4.13
2019-03-04T22:16:26.639Z,7.10
2019-03-04T22:18:56.143Z,4.93
2019-03-04T22:21:25.588Z,6.57
2019-03-04T22:23:54.917Z,5.10
2019-03-04T22:26:23.953Z,5.03
2019-03-04T22:28:53.257Z,5.03
2019-03-04T22:31:22.446Z,8.03
2019-03-04T22:33:51.958Z,4.17
2019-03-04T22:36:21.257Z,5.93
2019-03-04T22:38:50.728Z,7.00
2019-03-04T22:41:19.958Z,7.40
2019-03-04T22:43:50.892Z,5.13
2019-03-04T22:46:20.495Z,3.13
2019-03-04T22:48:49.941Z,4.63
2019-03-04T22:51:19.072Z,2.90
2019-03-04T22:53:48.274Z,6.83
2019-03-04T22:56:17.373Z,6.03
2019-03-04T22:58:46.967Z,5.63
2019-03-04T23:01:28.635Z,6.03
2019-03-04T23:04:23.105Z,5.47
2019-03-04T23:06:57.242Z,4.67
2019-03-04T23:09:27.803Z,5.97
2019-03-04T23:11:59.885Z,6.23
2019-03-04T23:14:29.402Z,5.43
2019-03-04T23:17:00.170Z,4.87
2019-03-04T23:19:29.492Z,5.20
2019-03-04T23:21:58.640Z,7.30
2019-03-04T23:24:28.079Z,3.67
2019-03-04T23:26:57.430Z,5.67
2019-03-04T23:29:26.476Z,6.07
2019-03-04T23:31:56.228Z,7.50
2019-03-04T23:34:25.492Z,8.13
2019-03-04T23:36:54.790Z,6.67
2019-03-04T23:39:23.888Z,4.67
2019-03-04T23:41:53.121Z,4.63
2019-03-04T23:44:22.690Z,3.93
2019-03-04T23:46:52.342Z,4.53
2019-03-04T23:49:21.498Z,3.07
2019-03-04T23:51:50.620Z,5.10
2019-03-04T23:54:19.887Z,4.90
2019-03-04T23:56:49.192Z,5.40
2019-03-04T23:59:18.493Z,4.47
